sensor_id;sensor_type;location;lat;lon;timestamp;pressure;altitude;pressure_sealevel;temperature;humidity
12793;BME280;6460;42.684;23.260;2023-04-09T00:01:06;94766.97;;;8.39;100.00
12793;BME280;6460;42.684;23.260;2023-04-09T00:03:33;94769.97;;;8.37;100.00
12793;BME280;6460;42.684;23.260;2023-04-09T00:06:01;94771.84;;;8.49;100.00
12793;BME280;6460;42.684;23.260;2023-04-09T00:08:28;94765.72;;;8.36;100.00
12793;BME280;6460;42.684;23.260;2023-04-09T00:10:57;94776.66;;;8.43;100.00
12793;BME280;6460;42.684;23.260;2023-04-09T00:13:24;94775.41;;;8.05;100.00
12793;BME280;6460;42.684;23.260;2023-04-09T00:15:52;94776.09;;;8.26;100.00
12793;BME280;6460;42.684;23.260;2023-04-09T00:18:20;94780.31;;;8.27;100.00
12793;BME280;6460;42.684;23.260;2023-04-09T00:20:47;94772.53;;;8.34;100.00
12793;BME280;6460;42.684;23.260;2023-04-09T00:23:15;94778.78;;;8.38;100.00
12793;BME280;6460;42.684;23.260;2023-04-09T00:25:42;94774.09;;;8.47;100.00
12793;BME280;6460;42.684;23.260;2023-04-09T00:28:09;94778.47;;;8.52;100.00
12793;BME280;6460;42.684;23.260;2023-04-09T00:30:36;94783.13;;;8.55;100.00
12793;BME280;6460;42.684;23.260;2023-04-09T00:33:03;94781.91;;;8.40;100.00
12793;BME280;6460;42.684;23.260;2023-04-09T00:35:32;94783.25;;;8.34;100.00
12793;BME280;6460;42.684;23.260;2023-04-09T00:37:59;94780.03;;;8.28;100.00
12793;BME280;6460;42.684;23.260;2023-04-09T00:40:26;94785.13;;;8.09;100.00
12793;BME280;6460;42.684;23.260;2023-04-09T00:42:53;94777.66;;;8.15;100.00
12793;BME280;6460;42.684;23.260;2023-04-09T00:45:21;94781.22;;;8.07;100.00
12793;BME280;6460;42.684;23.260;2023-04-09T00:47:49;94782.88;;;8.11;100.00
12793;BME280;6460;42.684;23.260;2023-04-09T00:50:16;94779.88;;;8.01;100.00
12793;BME280;6460;42.684;23.260;2023-04-09T00:52:44;94776.31;;;8.21;100.00
12793;BME280;6460;42.684;23.260;2023-04-09T00:55:12;94771.84;;;8.25;100.00
12793;BME280;6460;42.684;23.260;2023-04-09T00:57:40;94775.75;;;8.39;100.00
12793;BME280;6460;42.684;23.260;2023-04-09T01:00:08;94780.00;;;8.40;100.00
12793;BME280;6460;42.684;23.260;2023-04-09T01:02:36;94776.00;;;8.46;100.00
12793;BME280;6460;42.684;23.260;2023-04-09T01:05:04;94774.31;;;7.93;100.00
12793;BME280;6460;42.684;23.260;2023-04-09T01:07:42;94773.50;;;8.05;100.00
12793;BME280;6460;42.684;23.260;2023-04-09T01:10:21;94789.88;;;7.34;100.00
12793;BME280;6460;42.684;23.260;2023-04-09T01:12:59;94786.00;;;7.89;100.00
12793;BME280;6460;42.684;23.260;2023-04-09T01:15:30;94788.47;;;7.49;100.00
12793;BME280;6460;42.684;23.260;2023-04-09T01:18:05;94780.19;;;7.87;100.00
12793;BME280;6460;42.684;23.260;2023-04-09T01:20:37;94779.97;;;8.04;100.00
12793;BME280;6460;42.684;23.260;2023-04-09T01:23:14;94786.09;;;7.80;100.00
12793;BME280;6460;42.684;23.260;2023-04-09T01:25:56;94793.47;;;8.08;100.00
12793;BME280;6460;42.684;23.260;2023-04-09T01:28:31;94783.94;;;7.62;100.00
12793;BME280;6460;42.684;23.260;2023-04-09T01:31:01;94786.00;;;7.44;100.00
12793;BME280;6460;42.684;23.260;2023-04-09T01:33:30;94792.53;;;7.34;100.00
12793;BME280;6460;42.684;23.260;2023-04-09T01:35:58;94788.78;;;7.80;100.00
12793;BME280;6460;42.684;23.260;2023-04-09T01:38:26;94778.75;;;8.02;100.00
12793;BME280;6460;42.684;23.260;2023-04-09T01:40:54;94784.22;;;7.81;100.00
12793;BME280;6460;42.684;23.260;2023-04-09T01:43:23;94796.41;;;7.58;100.00
12793;BME280;6460;42.684;23.260;2023-04-09T01:45:52;94784.06;;;7.65;100.00
12793;BME280;6460;42.684;23.260;2023-04-09T01:48:21;94786.00;;;8.01;100.00
12793;BME280;6460;42.684;23.260;2023-04-09T01:50:49;94781.78;;;8.00;100.00
12793;BME280;6460;42.684;23.260;2023-04-09T01:53:17;94780.66;;;8.01;100.00
12793;BME280;6460;42.684;23.260;2023-04-09T01:55:44;94778.75;;;8.14;100.00
12793;BME280;6460;42.684;23.260;2023-04-09T01:58:13;94785.47;;;8.20;100.00
12793;BME280;6460;42.684;23.260;2023-04-09T02:00:45;94785.13;;;8.21;100.00
12793;BME280;6460;42.684;23.260;2023-04-09T02:03:17;94789.56;;;8.17;100.00
12793;BME280;6460;42.684;23.260;2023-04-09T02:05:52;94787.63;;;8.38;100.00
12793;BME280;6460;42.684;23.260;2023-04-09T02:08:22;94780.88;;;8.20;100.00
12793;BME280;6460;42.684;23.260;2023-04-09T02:10:54;94782.94;;;8.35;100.00
12793;BME280;6460;42.684;23.260;2023-04-09T02:13:22;94784.94;;;8.38;100.00
12793;BME280;6460;42.684;23.260;2023-04-09T02:15:50;94787.25;;;8.40;100.00
12793;BME280;6460;42.684;23.260;2023-04-09T02:18:23;94784.69;;;8.43;100.00
12793;BME280;6460;42.684;23.260;2023-04-09T02:20:52;94782.03;;;8.43;100.00
12793;BME280;6460;42.684;23.260;2023-04-09T02:23:19;94781.13;;;8.39;100.00
12793;BME280;6460;42.684;23.260;2023-04-09T02:25:47;94779.34;;;8.19;100.00
12793;BME280;6460;42.684;23.260;2023-04-09T02:28:14;94784.47;;;8.36;100.00
12793;BME280;6460;42.684;23.260;2023-04-09T02:30:41;94783.22;;;8.22;100.00
12793;BME280;6460;42.684;23.260;2023-04-09T02:33:08;94786.16;;;8.17;100.00
12793;BME280;6460;42.684;23.260;2023-04-09T02:35:37;94782.59;;;8.37;100.00
12793;BME280;6460;42.684;23.260;2023-04-09T02:38:04;94783.78;;;8.27;100.00
12793;BME280;6460;42.684;23.260;2023-04-09T02:40:32;94784.00;;;7.98;100.00
12793;BME280;6460;42.684;23.260;2023-04-09T02:42:59;94778.00;;;8.13;100.00
12793;BME280;6460;42.684;23.260;2023-04-09T02:45:27;94781.34;;;8.22;100.00
12793;BME280;6460;42.684;23.260;2023-04-09T02:47:54;94775.44;;;8.17;100.00
12793;BME280;6460;42.684;23.260;2023-04-09T02:50:21;94772.66;;;8.13;100.00
12793;BME280;6460;42.684;23.260;2023-04-09T02:52:50;94769.16;;;7.88;100.00
12793;BME280;6460;42.684;23.260;2023-04-09T02:55:17;94767.50;;;8.08;100.00
12793;BME280;6460;42.684;23.260;2023-04-09T02:57:45;94772.06;;;8.08;100.00
12793;BME280;6460;42.684;23.260;2023-04-09T03:00:12;94766.03;;;8.11;100.00
12793;BME280;6460;42.684;23.260;2023-04-09T03:02:40;94766.16;;;8.14;100.00
12793;BME280;6460;42.684;23.260;2023-04-09T03:05:07;94773.31;;;8.22;100.00
12793;BME280;6460;42.684;23.260;2023-04-09T03:07:34;94771.06;;;8.24;100.00
12793;BME280;6460;42.684;23.260;2023-04-09T03:10:04;94777.34;;;8.28;100.00
12793;BME280;6460;42.684;23.260;2023-04-09T03:12:31;94773.31;;;8.22;100.00
12793;BME280;6460;42.684;23.260;2023-04-09T03:14:58;94768.84;;;8.26;100.00
12793;BME280;6460;42.684;23.260;2023-04-09T03:17:25;94766.38;;;8.21;99.26
12793;BME280;6460;42.684;23.260;2023-04-09T03:19:54;94774.75;;;8.20;99.76
12793;BME280;6460;42.684;23.260;2023-04-09T03:22:21;94770.09;;;8.17;99.81
12793;BME280;6460;42.684;23.260;2023-04-09T03:24:48;94773.06;;;8.15;100.00
12793;BME280;6460;42.684;23.260;2023-04-09T03:27:17;94770.28;;;8.12;99.88
12793;BME280;6460;42.684;23.260;2023-04-09T03:29:44;94775.75;;;8.03;100.00
12793;BME280;6460;42.684;23.260;2023-04-09T03:32:11;94767.19;;;7.97;100.00
12793;BME280;6460;42.684;23.260;2023-04-09T03:34:38;94763.22;;;7.71;100.00
12793;BME280;6460;42.684;23.260;2023-04-09T03:37:05;94770.59;;;7.74;100.00
12793;BME280;6460;42.684;23.260;2023-04-09T03:39:32;94770.88;;;7.60;100.00
12793;BME280;6460;42.684;23.260;2023-04-09T03:41:59;94770.31;;;7.55;100.00
12793;BME280;6460;42.684;23.260;2023-04-09T03:44:28;94764.72;;;7.47;100.00
12793;BME280;6460;42.684;23.260;2023-04-09T03:46:55;94767.47;;;7.72;100.00
12793;BME280;6460;42.684;23.260;2023-04-09T03:49:23;94776.16;;;7.69;100.00
12793;BME280;6460;42.684;23.260;2023-04-09T03:51:50;94771.31;;;7.50;100.00
12793;BME280;6460;42.684;23.260;2023-04-09T03:54:17;94783.44;;;7.47;100.00
12793;BME280;6460;42.684;23.260;2023-04-09T03:56:45;94782.75;;;7.38;100.00
12793;BME280;6460;42.684;23.260;2023-04-09T03:59:12;94779.50;;;7.66;100.00
12793;BME280;6460;42.684;23.260;2023-04-09T04:01:40;94786.06;;;7.68;100.00
12793;BME280;6460;42.684;23.260;2023-04-09T04:04:08;94781.03;;;7.55;100.00
12793;BME280;6460;42.684;23.260;2023-04-09T04:06:35;94785.16;;;7.52;100.00
12793;BME280;6460;42.684;23.260;2023-04-09T04:09:02;94792.53;;;7.67;100.00
12793;BME280;6460;42.684;23.260;2023-04-09T04:11:29;94781.50;;;7.69;100.00
12793;BME280;6460;42.684;23.260;2023-04-09T04:13:57;94784.25;;;7.60;100.00
12793;BME280;6460;42.684;23.260;2023-04-09T04:16:24;94789.16;;;7.46;100.00
12793;BME280;6460;42.684;23.260;2023-04-09T04:18:53;94781.47;;;7.57;100.00
12793;BME280;6460;42.684;23.260;2023-04-09T04:21:20;94775.00;;;7.58;100.00
12793;BME280;6460;42.684;23.260;2023-04-09T04:23:47;94788.47;;;7.49;100.00
12793;BME280;6460;42.684;23.260;2023-04-09T04:26:15;94787.25;;;7.47;100.00
12793;BME280;6460;42.684;23.260;2023-04-09T04:28:42;94786.66;;;7.41;100.00
12793;BME280;6460;42.684;23.260;2023-04-09T04:31:09;94785.00;;;7.36;100.00
12793;BME280;6460;42.684;23.260;2023-04-09T04:33:37;94789.34;;;7.41;100.00
12793;BME280;6460;42.684;23.260;2023-04-09T04:36:07;94795.16;;;7.43;100.00
12793;BME280;6460;42.684;23.260;2023-04-09T04:38:35;94793.28;;;7.23;100.00
12793;BME280;6460;42.684;23.260;2023-04-09T04:41:02;94791.22;;;7.40;100.00
12793;BME280;6460;42.684;23.260;2023-04-09T04:43:30;94790.16;;;7.54;100.00
12793;BME280;6460;42.684;23.260;2023-04-09T04:45:58;94796.41;;;7.58;100.00
12793;BME280;6460;42.684;23.260;2023-04-09T04:48:25;94790.41;;;7.61;100.00
12793;BME280;6460;42.684;23.260;2023-04-09T04:50:54;94798.31;;;7.57;100.00
12793;BME280;6460;42.684;23.260;2023-04-09T04:53:24;94791.03;;;7.45;100.00
12793;BME280;6460;42.684;23.260;2023-04-09T04:55:51;94793.09;;;7.73;100.00
12793;BME280;6460;42.684;23.260;2023-04-09T04:58:19;94794.91;;;7.81;100.00
12793;BME280;6460;42.684;23.260;2023-04-09T05:00:46;94793.56;;;7.87;100.00
12793;BME280;6460;42.684;23.260;2023-04-09T05:03:13;94793.56;;;7.87;100.00
12793;BME280;6460;42.684;23.260;2023-04-09T05:05:41;94792.91;;;7.90;100.00
12793;BME280;6460;42.684;23.260;2023-04-09T05:08:08;94793.09;;;7.85;100.00
12793;BME280;6460;42.684;23.260;2023-04-09T05:10:39;94792.91;;;8.02;100.00
12793;BME280;6460;42.684;23.260;2023-04-09T05:13:07;94793.47;;;8.08;100.00
12793;BME280;6460;42.684;23.260;2023-04-09T05:15:37;94789.56;;;8.17;100.00
12793;BME280;6460;42.684;23.260;2023-04-09T05:18:05;94796.16;;;8.08;100.00
12793;BME280;6460;42.684;23.260;2023-04-09T05:20:32;94795.69;;;7.81;100.00
12793;BME280;6460;42.684;23.260;2023-04-09T05:23:00;94786.06;;;7.68;100.00
12793;BME280;6460;42.684;23.260;2023-04-09T05:25:27;94790.44;;;7.85;100.00
12793;BME280;6460;42.684;23.260;2023-04-09T05:27:55;94787.13;;;8.00;100.00
12793;BME280;6460;42.684;23.260;2023-04-09T05:30:23;94795.34;;;7.71;100.00
12793;BME280;6460;42.684;23.260;2023-04-09T05:32:50;94790.91;;;8.11;100.00
12793;BME280;6460;42.684;23.260;2023-04-09T05:35:17;94789.44;;;7.77;100.00
12793;BME280;6460;42.684;23.260;2023-04-09T05:37:44;94787.31;;;7.71;100.00
12793;BME280;6460;42.684;23.260;2023-04-09T05:40:12;94779.41;;;7.74;100.00
12793;BME280;6460;42.684;23.260;2023-04-09T05:42:40;94791.16;;;7.94;100.00
12793;BME280;6460;42.684;23.260;2023-04-09T05:45:10;94792.44;;;7.76;100.00
12793;BME280;6460;42.684;23.260;2023-04-09T05:47:37;94800.69;;;7.71;100.00
12793;BME280;6460;42.684;23.260;2023-04-09T05:50:05;94796.69;;;7.89;100.00
12793;BME280;6460;42.684;23.260;2023-04-09T05:52:32;94796.56;;;7.85;100.00
12793;BME280;6460;42.684;23.260;2023-04-09T05:54:59;94796.03;;;7.92;100.00
12793;BME280;6460;42.684;23.260;2023-04-09T05:57:26;94804.13;;;7.59;100.00
12793;BME280;6460;42.684;23.260;2023-04-09T05:59:55;94792.38;;;7.96;100.00
12793;BME280;6460;42.684;23.260;2023-04-09T06:02:23;94789.13;;;8.15;100.00
12793;BME280;6460;42.684;23.260;2023-04-09T06:04:51;94789.56;;;8.17;100.00
12793;BME280;6460;42.684;23.260;2023-04-09T06:07:18;94797.31;;;8.31;100.00
12793;BME280;6460;42.684;23.260;2023-04-09T06:09:45;94792.91;;;7.90;100.00
12793;BME280;6460;42.684;23.260;2023-04-09T06:12:12;94790.34;;;8.18;100.00
12793;BME280;6460;42.684;23.260;2023-04-09T06:14:40;94796.31;;;8.35;100.00
12793;BME280;6460;42.684;23.260;2023-04-09T06:17:07;94796.97;;;8.57;99.74
12793;BME280;6460;42.684;23.260;2023-04-09T06:19:36;94795.75;;;8.54;98.57
12793;BME280;6460;42.684;23.260;2023-04-09T06:22:03;94797.19;;;9.16;97.03
12793;BME280;6460;42.684;23.260;2023-04-09T06:24:30;94799.09;;;9.03;95.53
12793;BME280;6460;42.684;23.260;2023-04-09T06:26:59;94801.22;;;9.37;94.02
12793;BME280;6460;42.684;23.260;2023-04-09T06:29:26;94801.31;;;9.13;93.62
12793;BME280;6460;42.684;23.260;2023-04-09T06:31:54;94798.59;;;9.53;90.54
12793;BME280;6460;42.684;23.260;2023-04-09T06:34:21;94802.16;;;9.29;90.95
12793;BME280;6460;42.684;23.260;2023-04-09T06:36:49;94797.72;;;9.49;90.30
12793;BME280;6460;42.684;23.260;2023-04-09T06:39:17;94809.59;;;9.64;89.64
12793;BME280;6460;42.684;23.260;2023-04-09T06:41:44;94804.16;;;9.60;89.02
12793;BME280;6460;42.684;23.260;2023-04-09T06:44:12;94806.78;;;9.88;87.57
12793;BME280;6460;42.684;23.260;2023-04-09T06:46:39;94811.38;;;10.03;86.57
12793;BME280;6460;42.684;23.260;2023-04-09T06:49:06;94817.91;;;9.58;88.21
12793;BME280;6460;42.684;23.260;2023-04-09T06:51:33;94807.72;;;9.80;85.21
12793;BME280;6460;42.684;23.260;2023-04-09T06:54:02;94816.00;;;10.18;84.40
12793;BME280;6460;42.684;23.260;2023-04-09T06:56:29;94815.94;;;10.15;85.02
12793;BME280;6460;42.684;23.260;2023-04-09T06:58:56;94809.00;;;10.14;85.98
12793;BME280;6460;42.684;23.260;2023-04-09T07:01:24;94822.91;;;10.03;86.08
12793;BME280;6460;42.684;23.260;2023-04-09T07:03:51;94820.06;;;10.43;84.08
12793;BME280;6460;42.684;23.260;2023-04-09T07:06:18;94823.22;;;10.45;85.03
12793;BME280;6460;42.684;23.260;2023-04-09T07:08:45;94821.75;;;10.83;83.87
12793;BME280;6460;42.684;23.260;2023-04-09T07:11:14;94821.06;;;10.86;83.52
12793;BME280;6460;42.684;23.260;2023-04-09T07:13:42;94820.91;;;10.79;82.37
12793;BME280;6460;42.684;23.260;2023-04-09T07:16:09;94821.16;;;10.89;80.45
12793;BME280;6460;42.684;23.260;2023-04-09T07:18:36;94820.56;;;10.80;79.11
12793;BME280;6460;42.684;23.260;2023-04-09T07:21:04;94818.59;;;10.61;79.32
12793;BME280;6460;42.684;23.260;2023-04-09T07:23:33;94819.31;;;10.93;77.88
12793;BME280;6460;42.684;23.260;2023-04-09T07:26:01;94821.56;;;10.41;78.43
12793;BME280;6460;42.684;23.260;2023-04-09T07:28:29;94820.56;;;11.34;77.74
12793;BME280;6460;42.684;23.260;2023-04-09T07:30:57;94816.88;;;11.42;77.58
12793;BME280;6460;42.684;23.260;2023-04-09T07:33:25;94811.06;;;11.79;78.07
12793;BME280;6460;42.684;23.260;2023-04-09T07:35:53;94815.03;;;11.85;75.76
12793;BME280;6460;42.684;23.260;2023-04-09T07:38:20;94825.00;;;11.27;77.01
12793;BME280;6460;42.684;23.260;2023-04-09T07:40:48;94813.28;;;11.73;76.30
12793;BME280;6460;42.684;23.260;2023-04-09T07:43:15;94822.56;;;11.37;74.87
12793;BME280;6460;42.684;23.260;2023-04-09T07:45:44;94824.38;;;11.14;75.04
12793;BME280;6460;42.684;23.260;2023-04-09T07:48:11;94819.38;;;11.89;72.98
12793;BME280;6460;42.684;23.260;2023-04-09T07:50:38;94820.22;;;11.36;74.70
12793;BME280;6460;42.684;23.260;2023-04-09T07:53:05;94807.41;;;11.67;72.20
12793;BME280;6460;42.684;23.260;2023-04-09T07:55:32;94812.91;;;11.75;73.54
12793;BME280;6460;42.684;23.260;2023-04-09T07:57:59;94813.88;;;12.05;73.68
12793;BME280;6460;42.684;23.260;2023-04-09T08:00:28;94809.38;;;12.35;71.37
12793;BME280;6460;42.684;23.260;2023-04-09T08:02:57;94813.75;;;12.20;72.11
12793;BME280;6460;42.684;23.260;2023-04-09T08:05:26;94814.50;;;12.66;70.89
12793;BME280;6460;42.684;23.260;2023-04-09T08:07:53;94812.13;;;12.88;69.78
12793;BME280;6460;42.684;23.260;2023-04-09T08:10:20;94826.44;;;12.92;69.34
12793;BME280;6460;42.684;23.260;2023-04-09T08:12:48;94824.53;;;13.18;69.79
12793;BME280;6460;42.684;23.260;2023-04-09T08:15:16;94821.50;;;12.71;69.46
12793;BME280;6460;42.684;23.260;2023-04-09T08:17:43;94824.13;;;12.67;69.37
12793;BME280;6460;42.684;23.260;2023-04-09T08:20:12;94828.88;;;12.51;67.74
12793;BME280;6460;42.684;23.260;2023-04-09T08:22:41;94825.38;;;12.02;68.99
12793;BME280;6460;42.684;23.260;2023-04-09T08:25:08;94819.16;;;12.20;68.39
12793;BME280;6460;42.684;23.260;2023-04-09T08:27:35;94818.03;;;12.48;69.10
12793;BME280;6460;42.684;23.260;2023-04-09T08:30:05;94813.56;;;13.08;67.77
12793;BME280;6460;42.684;23.260;2023-04-09T08:32:32;94806.81;;;12.68;67.74
12793;BME280;6460;42.684;23.260;2023-04-09T08:35:00;94816.03;;;12.67;66.57
12793;BME280;6460;42.684;23.260;2023-04-09T08:37:28;94815.00;;;12.49;68.43
12793;BME280;6460;42.684;23.260;2023-04-09T08:39:55;94806.16;;;12.75;68.53
12793;BME280;6460;42.684;23.260;2023-04-09T08:42:24;94813.00;;;11.78;70.48
12793;BME280;6460;42.684;23.260;2023-04-09T08:44:51;94808.63;;;12.35;69.73
12793;BME280;6460;42.684;23.260;2023-04-09T08:47:19;94802.00;;;12.32;70.08
12793;BME280;6460;42.684;23.260;2023-04-09T08:49:46;94811.34;;;12.38;69.01
12793;BME280;6460;42.684;23.260;2023-04-09T08:52:15;94817.34;;;12.05;70.82
12793;BME280;6460;42.684;23.260;2023-04-09T08:54:48;94800.34;;;12.24;69.31
12793;BME280;6460;42.684;23.260;2023-04-09T08:57:16;94808.53;;;11.47;71.79
12793;BME280;6460;42.684;23.260;2023-04-09T08:59:43;94802.13;;;11.94;70.75
12793;BME280;6460;42.684;23.260;2023-04-09T09:02:11;94804.22;;;12.49;70.79
12793;BME280;6460;42.684;23.260;2023-04-09T09:04:45;94805.03;;;11.85;71.74
12793;BME280;6460;42.684;23.260;2023-04-09T09:07:13;94791.72;;;12.15;70.91
12793;BME280;6460;42.684;23.260;2023-04-09T09:09:52;94810.34;;;11.62;72.03
12793;BME280;6460;42.684;23.260;2023-04-09T09:12:30;94803.38;;;12.00;71.30
12793;BME280;6460;42.684;23.260;2023-04-09T09:14:58;94809.31;;;12.32;69.57
12793;BME280;6460;42.684;23.260;2023-04-09T09:17:25;94799.13;;;11.76;70.86
12793;BME280;6460;42.684;23.260;2023-04-09T09:19:52;94789.63;;;12.05;70.69
12793;BME280;6460;42.684;23.260;2023-04-09T09:22:20;94791.94;;;12.29;68.74
12793;BME280;6460;42.684;23.260;2023-04-09T09:24:48;94789.75;;;12.12;68.20
12793;BME280;6460;42.684;23.260;2023-04-09T09:27:32;94786.91;;;12.77;68.87
12793;BME280;6460;42.684;23.260;2023-04-09T09:30:02;94785.94;;;12.39;70.03
12793;BME280;6460;42.684;23.260;2023-04-09T09:32:30;94781.44;;;12.69;67.97
12793;BME280;6460;42.684;23.260;2023-04-09T09:35:00;94786.78;;;13.22;66.19
12793;BME280;6460;42.684;23.260;2023-04-09T09:37:28;94772.06;;;13.46;65.23
12793;BME280;6460;42.684;23.260;2023-04-09T09:39:56;94781.44;;;13.25;66.65
12793;BME280;6460;42.684;23.260;2023-04-09T09:42:23;94774.41;;;12.65;68.21
12793;BME280;6460;42.684;23.260;2023-04-09T09:44:52;94783.59;;;13.13;64.96
12793;BME280;6460;42.684;23.260;2023-04-09T09:47:21;94782.34;;;12.81;65.28
12793;BME280;6460;42.684;23.260;2023-04-09T09:49:50;94783.28;;;12.92;65.24
12793;BME280;6460;42.684;23.260;2023-04-09T09:52:24;94774.75;;;13.16;65.43
12793;BME280;6460;42.684;23.260;2023-04-09T09:54:54;94762.81;;;13.17;64.15
12793;BME280;6460;42.684;23.260;2023-04-09T09:57:24;94765.81;;;13.78;64.80
12793;BME280;6460;42.684;23.260;2023-04-09T10:00:00;94768.84;;;13.07;64.86
12793;BME280;6460;42.684;23.260;2023-04-09T10:02:32;94768.66;;;13.89;63.57
12793;BME280;6460;42.684;23.260;2023-04-09T10:05:03;94756.47;;;13.65;59.47
12793;BME280;6460;42.684;23.260;2023-04-09T10:07:32;94758.47;;;13.09;59.81
12793;BME280;6460;42.684;23.260;2023-04-09T10:10:00;94764.69;;;12.87;61.42
12793;BME280;6460;42.684;23.260;2023-04-09T10:12:28;94766.69;;;12.63;61.62
12793;BME280;6460;42.684;23.260;2023-04-09T10:14:57;94761.03;;;13.02;62.34
12793;BME280;6460;42.684;23.260;2023-04-09T10:17:29;94752.94;;;13.28;60.87
12793;BME280;6460;42.684;23.260;2023-04-09T10:20:03;94755.91;;;13.19;60.33
12793;BME280;6460;42.684;23.260;2023-04-09T10:22:32;94748.69;;;13.27;59.46
12793;BME280;6460;42.684;23.260;2023-04-09T10:25:02;94752.56;;;12.73;60.58
12793;BME280;6460;42.684;23.260;2023-04-09T10:27:29;94766.16;;;12.81;60.80
12793;BME280;6460;42.684;23.260;2023-04-09T10:29:58;94763.41;;;12.77;61.05
12793;BME280;6460;42.684;23.260;2023-04-09T10:32:25;94756.72;;;12.94;60.23
12793;BME280;6460;42.684;23.260;2023-04-09T10:34:56;94764.06;;;12.97;60.92
12793;BME280;6460;42.684;23.260;2023-04-09T10:37:25;94760.28;;;13.01;58.88
12793;BME280;6460;42.684;23.260;2023-04-09T10:39:53;94746.66;;;12.91;59.79
12793;BME280;6460;42.684;23.260;2023-04-09T10:42:22;94747.72;;;13.42;58.78
12793;BME280;6460;42.684;23.260;2023-04-09T10:45:06;94754.56;;;14.10;56.46
12793;BME280;6460;42.684;23.260;2023-04-09T10:47:36;94745.94;;;14.38;56.90
12793;BME280;6460;42.684;23.260;2023-04-09T10:50:14;94745.19;;;14.99;55.35
12793;BME280;6460;42.684;23.260;2023-04-09T10:52:42;94737.50;;;15.08;55.67
12793;BME280;6460;42.684;23.260;2023-04-09T10:55:09;94732.00;;;14.94;54.43
12793;BME280;6460;42.684;23.260;2023-04-09T10:57:55;94726.56;;;14.90;54.54
12793;BME280;6460;42.684;23.260;2023-04-09T11:00:24;94732.00;;;14.94;53.28
12793;BME280;6460;42.684;23.260;2023-04-09T11:03:05;94730.03;;;14.87;53.02
12793;BME280;6460;42.684;23.260;2023-04-09T11:05:37;94731.75;;;14.51;53.67
12793;BME280;6460;42.684;23.260;2023-04-09T11:08:07;94722.44;;;14.49;54.09
12793;BME280;6460;42.684;23.260;2023-04-09T11:10:35;94720.25;;;14.68;54.05
12793;BME280;6460;42.684;23.260;2023-04-09T11:13:03;94710.25;;;14.72;52.94
12793;BME280;6460;42.684;23.260;2023-04-09T11:15:34;94712.03;;;14.51;54.10
12793;BME280;6460;42.684;23.260;2023-04-09T11:18:02;94720.47;;;15.07;53.28
12793;BME280;6460;42.684;23.260;2023-04-09T11:20:33;94722.19;;;15.44;52.15
12793;BME280;6460;42.684;23.260;2023-04-09T11:23:00;94716.16;;;16.17;50.13
12793;BME280;6460;42.684;23.260;2023-04-09T11:25:29;94719.22;;;15.87;50.12
12793;BME280;6460;42.684;23.260;2023-04-09T11:27:56;94729.75;;;15.10;51.10
12793;BME280;6460;42.684;23.260;2023-04-09T11:30:24;94728.44;;;15.62;50.15
12793;BME280;6460;42.684;23.260;2023-04-09T11:32:53;94720.69;;;15.57;49.98
12793;BME280;6460;42.684;23.260;2023-04-09T11:35:21;94731.78;;;15.27;51.51
12793;BME280;6460;42.684;23.260;2023-04-09T11:37:49;94738.06;;;13.82;59.79
12793;BME280;6460;42.684;23.260;2023-04-09T11:40:18;94732.56;;;13.04;62.40
12793;BME280;6460;42.684;23.260;2023-04-09T11:42:47;94726.56;;;13.14;62.62
12793;BME280;6460;42.684;23.260;2023-04-09T11:45:16;94731.34;;;13.28;62.55
12793;BME280;6460;42.684;23.260;2023-04-09T11:47:44;94729.34;;;12.65;63.86
12793;BME280;6460;42.684;23.260;2023-04-09T11:50:14;94732.94;;;12.47;64.15
12793;BME280;6460;42.684;23.260;2023-04-09T11:52:41;94726.59;;;12.88;63.23
12793;BME280;6460;42.684;23.260;2023-04-09T11:55:09;94726.34;;;12.70;64.77
12793;BME280;6460;42.684;23.260;2023-04-09T11:57:39;94717.72;;;12.88;64.64
12793;BME280;6460;42.684;23.260;2023-04-09T12:00:09;94714.81;;;12.44;65.68
12793;BME280;6460;42.684;23.260;2023-04-09T12:02:41;94726.88;;;11.82;68.02
12793;BME280;6460;42.684;23.260;2023-04-09T12:05:10;94720.25;;;11.98;69.72
12793;BME280;6460;42.684;23.260;2023-04-09T12:07:40;94713.50;;;12.34;65.91
12793;BME280;6460;42.684;23.260;2023-04-09T12:10:11;94718.38;;;12.25;67.15
12793;BME280;6460;42.684;23.260;2023-04-09T12:12:42;94717.31;;;12.07;70.67
12793;BME280;6460;42.684;23.260;2023-04-09T12:15:17;94712.19;;;12.51;68.17
12793;BME280;6460;42.684;23.260;2023-04-09T12:17:46;94705.09;;;12.65;68.31
12793;BME280;6460;42.684;23.260;2023-04-09T12:20:24;94706.66;;;12.66;68.66
12793;BME280;6460;42.684;23.260;2023-04-09T12:22:53;94701.66;;;12.68;69.27
12793;BME280;6460;42.684;23.260;2023-04-09T12:25:20;94709.50;;;12.51;70.27
12793;BME280;6460;42.684;23.260;2023-04-09T12:27:47;94707.91;;;12.46;68.04
12793;BME280;6460;42.684;23.260;2023-04-09T12:30:15;94702.97;;;12.52;67.42
12793;BME280;6460;42.684;23.260;2023-04-09T12:32:42;94702.25;;;12.55;68.47
12793;BME280;6460;42.684;23.260;2023-04-09T12:35:10;94701.53;;;13.17;66.94
12793;BME280;6460;42.684;23.260;2023-04-09T12:37:37;94692.75;;;13.27;65.77
12793;BME280;6460;42.684;23.260;2023-04-09T12:40:07;94686.63;;;13.67;63.57
12793;BME280;6460;42.684;23.260;2023-04-09T12:42:35;94690.53;;;14.17;62.27
12793;BME280;6460;42.684;23.260;2023-04-09T12:45:02;94684.16;;;14.43;61.58
12793;BME280;6460;42.684;23.260;2023-04-09T12:47:30;94681.38;;;14.32;59.32
12793;BME280;6460;42.684;23.260;2023-04-09T12:49:57;94677.41;;;13.32;59.91
12793;BME280;6460;42.684;23.260;2023-04-09T12:52:24;94678.91;;;14.10;57.91
12793;BME280;6460;42.684;23.260;2023-04-09T12:54:51;94679.91;;;14.39;55.02
12793;BME280;6460;42.684;23.260;2023-04-09T12:57:20;94671.94;;;14.63;53.96
12793;BME280;6460;42.684;23.260;2023-04-09T12:59:47;94676.31;;;14.86;51.69
12793;BME280;6460;42.684;23.260;2023-04-09T13:02:14;94669.94;;;14.53;51.39
12793;BME280;6460;42.684;23.260;2023-04-09T13:04:42;94665.22;;;14.40;51.87
12793;BME280;6460;42.684;23.260;2023-04-09T13:07:09;94672.75;;;14.13;54.78